Time;durP1;ratioP1;P1;durP2;ratioP2;P2;SDS_P1;SDS_P2;PMS_P1;PMS_P2;Temp;Humidity;BMP_temperature;BMP_pressure;BME280_temperature;BME280_humidity;BME280_pressure;Samples;Min_cycle;Max_cycle;Signal;HPM_P1;HPM_P2
2022/02/23 00:01:39;;;;;;;16.47;3.87;;;6.10;99.90;;;;;;5005905;28;20424;-84
2022/02/23 00:04:06;;;;;;;22.33;4.23;;;6.20;99.90;;;;;;5024904;28;20482;-84
2022/02/23 00:06:31;;;;;;;19.90;2.90;;;6.10;99.90;;;;;;5022851;28;20249;-84
2022/02/23 00:08:57;;;;;;;21.47;3.93;;;6.20;99.90;;;;;;5022440;28;20517;-83
2022/02/23 00:11:23;;;;;;;19.17;3.53;;;6.20;99.90;;;;;;5019611;28;20500;-83
2022/02/23 00:13:48;;;;;;;18.83;2.93;;;6.20;99.90;;;;;;5017768;28;20640;-83
2022/02/23 00:16:15;;;;;;;14.73;2.47;;;6.20;99.90;;;;;;5020887;28;20203;-83
2022/02/23 00:18:40;;;;;;;16.93;3.87;;;6.30;99.90;;;;;;5022006;28;20460;-83
2022/02/23 00:21:06;;;;;;;13.50;3.47;;;6.30;99.90;;;;;;5020179;28;20922;-83
2022/02/23 00:23:31;;;;;;;26.80;3.57;;;6.30;99.90;;;;;;5021491;28;20224;-84
2022/02/23 00:25:57;;;;;;;14.23;3.00;;;6.40;99.90;;;;;;5021907;28;20291;-83
2022/02/23 00:28:28;;;;;;;12.77;2.63;;;6.40;99.90;;;;;;5025152;28;20175;-84
2022/02/23 00:30:54;;;;;;;22.47;3.23;;;6.40;99.90;;;;;;5025990;28;20233;-83
2022/02/23 00:33:19;;;;;;;15.77;3.57;;;6.30;99.90;;;;;;5016869;28;20426;-84
2022/02/23 00:35:45;;;;;;;11.57;3.03;;;6.30;99.90;;;;;;5034159;28;20654;-84
2022/02/23 00:38:16;;;;;;;19.73;3.47;;;6.30;99.90;;;;;;5035292;28;20178;-84
2022/02/23 00:40:42;;;;;;;19.87;3.83;;;6.40;99.90;;;;;;5035535;28;20170;-84
2022/02/23 00:43:08;;;;;;;22.60;4.27;;;6.40;99.90;;;;;;5035765;28;20774;-84
2022/02/23 00:45:34;;;;;;;21.40;3.40;;;6.40;99.90;;;;;;5035638;28;20163;-84
2022/02/23 00:48:00;;;;;;;21.90;3.57;;;6.50;99.90;;;;;;5017834;28;20174;-84
2022/02/23 00:50:25;;;;;;;9.10;2.37;;;6.50;99.90;;;;;;5035486;28;20585;-84
2022/02/23 00:52:51;;;;;;;19.67;5.30;;;6.50;99.90;;;;;;5035462;28;20182;-84
2022/02/23 00:55:16;;;;;;;21.67;3.63;;;6.60;99.90;;;;;;5035114;28;20678;-84
2022/02/23 00:57:42;;;;;;;11.17;3.00;;;6.60;99.90;;;;;;5017675;28;20175;-84
2022/02/23 01:00:08;;;;;;;14.30;2.90;;;6.50;99.90;;;;;;5035559;28;20572;-83
2022/02/23 01:02:34;;;;;;;11.00;1.43;;;6.60;99.90;;;;;;5035268;28;20275;-83
2022/02/23 01:05:02;;;;;;;16.53;4.47;;;6.60;99.90;;;;;;5035330;28;20446;-84
2022/02/23 01:07:28;;;;;;;11.97;3.30;;;6.70;99.90;;;;;;5035263;28;20595;-84
2022/02/23 01:09:53;;;;;;;21.53;3.20;;;6.60;99.90;;;;;;5034956;28;20449;-83
2022/02/23 01:12:19;;;;;;;22.57;3.20;;;6.70;99.90;;;;;;5035136;28;20286;-83
2022/02/23 01:14:45;;;;;;;16.40;2.60;;;6.70;99.90;;;;;;5035216;28;20167;-86
2022/02/23 01:17:10;;;;;;;21.27;4.83;;;6.60;99.90;;;;;;5035193;28;20172;-83
2022/02/23 01:19:36;;;;;;;11.10;3.20;;;6.60;99.90;;;;;;5035125;28;20172;-83
2022/02/23 01:22:02;;;;;;;18.80;3.77;;;6.60;99.90;;;;;;5035024;28;20182;-84
2022/02/23 01:24:27;;;;;;;22.63;4.03;;;6.60;99.90;;;;;;5034882;28;20222;-83
2022/02/23 01:26:53;;;;;;;18.70;3.30;;;6.60;99.90;;;;;;5034365;28;20180;-83
2022/02/23 01:29:18;;;;;;;15.90;3.20;;;6.60;99.90;;;;;;5034875;28;20233;-83
2022/02/23 01:31:44;;;;;;;20.17;2.63;;;6.60;99.90;;;;;;5034785;28;20212;-83
2022/02/23 01:34:10;;;;;;;16.20;2.80;;;6.60;99.90;;;;;;5017116;28;20644;-83
2022/02/23 01:36:35;;;;;;;25.47;4.27;;;6.60;99.90;;;;;;5034880;28;20175;-83
2022/02/23 01:39:01;;;;;;;14.60;4.13;;;6.60;99.90;;;;;;5034729;28;20219;-83
2022/02/23 01:41:27;;;;;;;13.20;2.83;;;6.60;99.90;;;;;;5034502;28;20258;-83
2022/02/23 01:43:53;;;;;;;14.80;2.60;;;6.70;99.90;;;;;;5033806;28;20634;-83
2022/02/23 01:46:19;;;;;;;11.23;2.33;;;6.60;99.90;;;;;;5034657;28;20463;-84
2022/02/23 01:48:45;;;;;;;18.23;4.70;;;6.70;99.90;;;;;;5034618;28;20176;-83
2022/02/23 01:51:10;;;;;;;17.63;3.30;;;6.70;99.90;;;;;;5034370;28;20381;-84
2022/02/23 01:53:36;;;;;;;14.80;2.67;;;6.60;99.90;;;;;;5034490;28;20509;-84
2022/02/23 01:56:03;;;;;;;18.87;3.40;;;6.60;99.90;;;;;;5034075;28;20245;-84
2022/02/23 01:58:28;;;;;;;10.67;2.70;;;6.70;99.90;;;;;;5034289;28;20889;-84
2022/02/23 02:00:54;;;;;;;19.57;3.03;;;6.70;99.90;;;;;;5034329;28;20435;-84
2022/02/23 02:03:20;;;;;;;23.30;3.60;;;6.70;99.90;;;;;;5034366;28;20619;-83
2022/02/23 02:05:45;;;;;;;14.93;1.60;;;6.70;99.90;;;;;;5016494;28;20172;-82
2022/02/23 02:08:11;;;;;;;23.00;3.70;;;6.60;99.90;;;;;;5034186;28;20168;-83
2022/02/23 02:10:36;;;;;;;17.73;3.30;;;6.70;99.90;;;;;;5033705;28;20211;-83
2022/02/23 02:13:02;;;;;;;8.93;1.97;;;6.70;99.90;;;;;;5034119;28;20180;-83
2022/02/23 02:15:28;;;;;;;14.10;2.80;;;6.70;99.90;;;;;;5034038;28;20175;-83
2022/02/23 02:17:54;;;;;;;19.73;2.40;;;6.70;99.90;;;;;;5034012;28;20405;-85
2022/02/23 02:20:19;;;;;;;12.43;3.10;;;6.60;99.90;;;;;;5032785;28;20229;-84
2022/02/23 02:22:45;;;;;;;11.60;2.20;;;6.70;99.90;;;;;;5032441;28;20703;-85
2022/02/23 02:25:10;;;;;;;19.87;4.97;;;6.60;99.90;;;;;;5033271;28;20184;-85
2022/02/23 02:27:36;;;;;;;9.77;2.10;;;6.60;99.90;;;;;;5015998;28;20186;-83
2022/02/23 02:30:02;;;;;;;16.67;2.03;;;6.70;99.90;;;;;;5015823;28;20180;-83
2022/02/23 02:32:28;;;;;;;15.10;2.60;;;6.60;99.90;;;;;;5033678;28;20192;-84
2022/02/23 02:34:53;;;;;;;13.07;2.23;;;6.50;99.90;;;;;;5033593;28;20911;-84
2022/02/23 02:37:19;;;;;;;20.40;3.90;;;6.50;99.90;;;;;;5033566;28;20257;-84
2022/02/23 02:39:45;;;;;;;17.53;4.47;;;6.50;99.90;;;;;;5033070;28;20245;-84
2022/02/23 02:42:10;;;;;;;8.03;2.17;;;6.50;99.90;;;;;;5033488;28;20171;-84
2022/02/23 02:44:36;;;;;;;16.80;4.67;;;6.50;99.90;;;;;;5033415;28;20188;-84
2022/02/23 02:47:02;;;;;;;13.63;3.10;;;6.60;99.90;;;;;;5015637;28;20511;-85
2022/02/23 02:49:28;;;;;;;20.07;3.40;;;6.60;99.90;;;;;;5015609;28;20934;-85
2022/02/23 02:51:54;;;;;;;15.60;2.57;;;6.60;99.90;;;;;;5015640;28;20481;-86
2022/02/23 02:54:20;;;;;;;13.10;3.70;;;6.60;99.90;;;;;;5032961;28;20181;-85
2022/02/23 02:56:46;;;;;;;12.90;2.53;;;6.50;99.90;;;;;;5033210;28;20185;-84
2022/02/23 02:59:12;;;;;;;7.43;2.97;;;6.40;99.90;;;;;;5015533;28;20408;-84
2022/02/23 03:01:38;;;;;;;12.80;3.00;;;6.30;99.90;;;;;;5033141;28;20423;-86
2022/02/23 03:04:06;;;;;;;14.87;2.90;;;6.40;99.90;;;;;;5033192;28;20414;-84
2022/02/23 03:06:33;;;;;;;20.03;3.50;;;6.40;99.90;;;;;;5033022;28;20171;-84
2022/02/23 03:08:59;;;;;;;20.63;3.30;;;6.40;99.90;;;;;;5033047;28;20460;-85
2022/02/23 03:11:25;;;;;;;18.70;2.47;;;6.40;99.90;;;;;;5017242;28;20473;-84
2022/02/23 03:13:54;;;;;;;20.13;3.57;;;6.40;99.90;;;;;;5015287;28;20413;-85
2022/02/23 03:16:20;;;;;;;19.80;3.23;;;6.40;99.90;;;;;;5015317;28;20421;-84
2022/02/23 03:18:45;;;;;;;18.30;2.70;;;6.40;99.90;;;;;;5032890;28;20430;-84
2022/02/23 03:21:11;;;;;;;11.20;2.40;;;6.30;99.90;;;;;;5032745;28;20933;-84
2022/02/23 03:23:38;;;;;;;18.07;5.00;;;6.30;99.90;;;;;;5032751;28;20220;-83
2022/02/23 03:26:04;;;;;;;18.73;2.70;;;6.30;99.90;;;;;;5030881;28;20655;-85
2022/02/23 03:28:31;;;;;;;21.60;2.87;;;6.40;99.90;;;;;;5032749;28;20407;-84
2022/02/23 03:30:57;;;;;;;17.00;3.70;;;6.40;99.90;;;;;;5032761;28;20566;-84
2022/02/23 03:33:22;;;;;;;21.17;3.37;;;6.40;99.90;;;;;;5032543;28;20458;-84
2022/02/23 03:35:48;;;;;;;7.60;2.60;;;6.40;99.90;;;;;;5032768;28;20514;-85
2022/02/23 03:38:14;;;;;;;10.93;1.50;;;6.30;99.90;;;;;;5032705;28;20175;-84
2022/02/23 03:40:42;;;;;;;7.90;1.87;;;6.30;99.90;;;;;;5032507;28;20200;-84
2022/02/23 03:43:17;;;;;;;9.10;2.07;;;6.30;99.90;;;;;;5032827;28;20407;-83
2022/02/23 03:45:44;;;;;;;13.20;3.00;;;6.30;99.90;;;;;;5015128;28;20496;-84
2022/02/23 03:48:10;;;;;;;13.30;2.40;;;6.40;99.90;;;;;;5014913;28;20422;-84
2022/02/23 03:50:35;;;;;;;9.40;1.70;;;6.30;99.90;;;;;;5014983;28;20470;-84
2022/02/23 03:53:01;;;;;;;18.33;3.97;;;6.40;99.90;;;;;;5032581;28;20996;-84
2022/02/23 03:55:27;;;;;;;9.03;2.50;;;6.40;99.90;;;;;;5014516;28;20645;-84
2022/02/23 03:57:52;;;;;;;14.60;3.00;;;6.40;99.90;;;;;;5032514;28;20590;-84
2022/02/23 04:00:18;;;;;;;18.53;3.20;;;6.40;99.90;;;;;;5032581;28;20246;-84
2022/02/23 04:02:44;;;;;;;12.70;2.80;;;6.50;99.90;;;;;;5032364;28;20183;-84
2022/02/23 04:05:10;;;;;;;16.43;2.60;;;6.50;99.90;;;;;;5032511;28;20217;-84
2022/02/23 04:07:37;;;;;;;12.13;2.10;;;6.60;99.90;;;;;;5033960;28;20803;-84
2022/02/23 04:10:04;;;;;;;15.03;2.90;;;6.50;99.90;;;;;;5036041;28;20970;-84
2022/02/23 04:12:29;;;;;;;8.60;2.07;;;6.50;99.90;;;;;;5036055;28;20520;-84
2022/02/23 04:14:55;;;;;;;9.33;1.73;;;6.50;99.90;;;;;;5036400;28;20433;-83
2022/02/23 04:17:20;;;;;;;11.27;2.97;;;6.60;99.90;;;;;;5036392;28;20259;-85
2022/02/23 04:19:46;;;;;;;12.40;2.50;;;6.50;99.90;;;;;;5036199;28;20641;-84
2022/02/23 04:22:11;;;;;;;11.13;1.53;;;6.60;99.90;;;;;;5018259;28;20175;-84
2022/02/23 04:24:37;;;;;;;10.60;3.67;;;6.50;99.90;;;;;;5018136;28;20179;-86
2022/02/23 04:27:03;;;;;;;13.80;2.33;;;6.50;99.90;;;;;;5035644;28;20192;-84
2022/02/23 04:29:35;;;;;;;11.10;2.83;;;6.50;99.90;;;;;;5036165;28;20656;-84
2022/02/23 04:32:00;;;;;;;10.43;2.73;;;6.50;99.90;;;;;;5035903;28;21183;-84
2022/02/23 04:34:26;;;;;;;15.00;2.40;;;6.40;99.90;;;;;;5035881;28;20408;-86
2022/02/23 04:36:52;;;;;;;12.43;1.83;;;6.40;99.90;;;;;;5035788;28;20199;-85
2022/02/23 04:39:18;;;;;;;14.60;2.80;;;6.50;99.90;;;;;;5035445;28;20965;-84
2022/02/23 04:41:44;;;;;;;13.40;2.83;;;6.50;99.90;;;;;;5017891;28;20232;-85
2022/02/23 04:44:09;;;;;;;14.20;2.10;;;6.50;99.90;;;;;;5018097;28;20410;-85
2022/02/23 04:46:36;;;;;;;16.33;2.53;;;6.50;99.90;;;;;;5035710;28;20179;-85
2022/02/23 04:49:02;;;;;;;10.10;3.13;;;6.50;99.90;;;;;;5035656;28;20174;-84
2022/02/23 04:51:29;;;;;;;13.63;3.20;;;6.50;99.90;;;;;;5017816;28;20477;-85
2022/02/23 04:53:59;;;;;;;14.07;2.60;;;6.50;99.90;;;;;;5017897;28;20924;-83
2022/02/23 04:56:28;;;;;;;10.53;2.40;;;6.50;99.90;;;;;;5017653;28;20423;-85
2022/02/23 04:58:54;;;;;;;15.13;2.70;;;6.50;99.90;;;;;;5017717;28;20416;-84
2022/02/23 05:01:20;;;;;;;12.73;2.87;;;6.50;99.90;;;;;;5035463;28;20422;-83
2022/02/23 05:03:45;;;;;;;13.93;2.40;;;6.40;99.90;;;;;;5035395;28;20408;-84
2022/02/23 05:06:11;;;;;;;17.63;1.93;;;6.40;99.90;;;;;;5034097;28;20178;-84
2022/02/23 05:08:37;;;;;;;12.37;3.20;;;6.50;99.90;;;;;;5035321;28;20203;-83
2022/02/23 05:11:03;;;;;;;15.30;2.77;;;6.40;99.90;;;;;;5017057;28;20541;-83
2022/02/23 05:13:32;;;;;;;11.10;2.20;;;6.40;99.90;;;;;;5017430;28;20190;-83
2022/02/23 05:16:02;;;;;;;16.93;3.20;;;6.40;99.90;;;;;;5035169;28;20179;-83
2022/02/23 05:18:31;;;;;;;11.03;1.90;;;6.40;99.90;;;;;;5034301;28;20429;-83
2022/02/23 05:20:59;;;;;;;16.67;2.90;;;6.40;99.90;;;;;;5034789;28;20418;-84
2022/02/23 05:23:25;;;;;;;9.93;3.00;;;6.40;99.90;;;;;;5034897;28;20455;-83
2022/02/23 05:25:51;;;;;;;18.03;2.83;;;6.50;99.90;;;;;;5034391;28;20688;-83
2022/02/23 05:28:17;;;;;;;16.83;2.40;;;6.40;99.90;;;;;;5017044;28;20513;-83
2022/02/23 05:30:43;;;;;;;7.63;2.13;;;6.40;99.90;;;;;;5034932;28;20504;-83
2022/02/23 05:33:08;;;;;;;12.80;3.27;;;6.40;99.90;;;;;;5035123;28;20940;-83
2022/02/23 05:35:34;;;;;;;12.60;2.10;;;6.50;99.90;;;;;;5034938;28;20268;-83
2022/02/23 05:38:00;;;;;;;14.67;1.90;;;6.40;99.90;;;;;;5049856;28;20177;-82
2022/02/23 05:40:26;;;;;;;9.73;2.43;;;6.40;99.90;;;;;;5052778;28;20521;-81
2022/02/23 05:42:54;;;;;;;11.13;2.80;;;6.50;99.90;;;;;;5056670;28;20309;-82
2022/02/23 05:45:19;;;;;;;22.93;3.40;;;6.50;99.90;;;;;;5020962;28;20445;-83
2022/02/23 05:47:45;;;;;;;14.50;2.47;;;6.50;99.90;;;;;;5016515;28;20425;-83
2022/02/23 05:50:11;;;;;;;15.90;2.83;;;6.40;99.90;;;;;;5034432;28;20175;-84
2022/02/23 05:52:37;;;;;;;14.53;3.80;;;6.40;99.90;;;;;;5034487;28;20621;-84
2022/02/23 05:55:04;;;;;;;17.33;4.20;;;6.40;99.90;;;;;;5034127;28;20415;-84
2022/02/23 05:57:36;;;;;;;19.47;4.07;;;6.40;99.90;;;;;;5016531;28;20190;-83
2022/02/23 06:00:04;;;;;;;18.30;2.10;;;6.40;99.90;;;;;;5034118;28;20945;-84
2022/02/23 06:02:29;;;;;;;11.83;3.73;;;6.40;99.90;;;;;;5034121;28;20407;-83
2022/02/23 06:04:54;;;;;;;10.40;1.97;;;6.40;99.90;;;;;;5034108;28;20769;-83
2022/02/23 06:07:21;;;;;;;14.43;2.60;;;6.40;99.90;;;;;;5034098;28;20183;-83
2022/02/23 06:09:46;;;;;;;13.17;2.93;;;6.40;99.90;;;;;;5033737;28;20204;-86
2022/02/23 06:12:12;;;;;;;16.80;3.20;;;6.30;99.90;;;;;;5024731;28;20503;-83
2022/02/23 06:14:37;;;;;;;11.40;1.93;;;6.20;99.90;;;;;;5004142;28;20264;-85
2022/02/23 06:17:03;;;;;;;12.10;2.43;;;6.20;99.90;;;;;;5022988;28;20247;-85
2022/02/23 06:19:29;;;;;;;30.40;4.00;;;6.30;99.90;;;;;;5023366;28;20169;-84
2022/02/23 06:22:15;;;;;;;13.97;2.70;;;6.30;99.90;;;;;;5030859;28;20425;-84
2022/02/23 06:24:43;;;;;;;15.47;2.60;;;6.20;99.90;;;;;;5032818;28;20649;-84
2022/02/23 06:27:10;;;;;;;13.63;3.37;;;6.20;99.90;;;;;;5013703;28;20429;-83
2022/02/23 06:29:35;;;;;;;12.83;3.23;;;6.30;99.90;;;;;;5032498;28;20440;-84
2022/02/23 06:32:04;;;;;;;8.00;1.93;;;6.20;99.90;;;;;;5031960;28;20474;-84
2022/02/23 06:34:30;;;;;;;15.70;2.93;;;6.20;99.90;;;;;;5033755;28;20535;-84
2022/02/23 06:36:55;;;;;;;8.73;1.60;;;6.10;99.90;;;;;;5015882;28;20435;-84
2022/02/23 06:39:21;;;;;;;17.03;3.13;;;6.10;99.90;;;;;;5015454;28;20449;-84
2022/02/23 06:41:51;;;;;;;16.27;4.83;;;6.10;99.90;;;;;;5033556;28;20265;-84
2022/02/23 06:44:20;;;;;;;12.47;2.40;;;6.10;99.90;;;;;;5034418;28;20176;-86
2022/02/23 06:46:47;;;;;;;15.83;4.00;;;6.10;99.90;;;;;;5033868;28;20525;-83
2022/02/23 06:49:13;;;;;;;19.67;3.80;;;6.20;99.90;;;;;;5033578;28;20408;-83
2022/02/23 06:51:40;;;;;;;12.03;2.43;;;6.20;99.90;;;;;;5033954;28;20574;-84
2022/02/23 06:54:06;;;;;;;19.80;3.70;;;6.20;99.90;;;;;;5033227;28;20173;-83
2022/02/23 06:56:31;;;;;;;14.63;2.73;;;6.20;99.90;;;;;;5033503;28;20419;-84
2022/02/23 06:58:57;;;;;;;22.97;3.50;;;6.20;99.90;;;;;;5033296;28;20179;-83
2022/02/23 07:01:22;;;;;;;13.50;2.93;;;6.20;99.90;;;;;;5033462;28;20178;-84
2022/02/23 07:03:49;;;;;;;8.77;3.03;;;6.30;99.90;;;;;;5033916;28;20171;-84
2022/02/23 07:06:15;;;;;;;19.93;3.10;;;6.30;99.90;;;;;;5034346;28;20173;-85
2022/02/23 07:08:48;;;;;;;16.20;2.97;;;6.40;99.90;;;;;;5039545;28;20414;-85
2022/02/23 07:11:14;;;;;;;16.10;2.93;;;6.60;99.90;;;;;;5020986;28;20543;-84
2022/02/23 07:13:40;;;;;;;13.13;2.93;;;6.60;99.90;;;;;;5037512;28;20783;-84
2022/02/23 07:16:05;;;;;;;12.23;2.83;;;6.60;99.90;;;;;;5018094;28;20434;-83
2022/02/23 07:18:39;;;;;;;19.00;3.23;;;7.00;99.90;;;;;;5018091;28;20175;-83
2022/02/23 07:21:05;;;;;;;24.33;3.33;;;6.90;99.90;;;;;;5034659;28;20603;-83
2022/02/23 07:23:30;;;;;;;16.50;2.90;;;6.70;99.90;;;;;;5016500;28;20560;-83
2022/02/23 07:25:56;;;;;;;10.37;2.77;;;6.70;99.90;;;;;;5014607;28;20198;-83
2022/02/23 07:28:22;;;;;;;13.00;2.00;;;6.60;99.90;;;;;;5032893;28;20540;-83
2022/02/23 07:30:48;;;;;;;14.30;2.80;;;6.60;99.90;;;;;;5032892;28;20205;-84
2022/02/23 07:33:18;;;;;;;18.03;1.80;;;6.60;99.90;;;;;;5032755;28;20428;-83
2022/02/23 07:35:44;;;;;;;14.17;1.93;;;6.70;99.90;;;;;;5032741;28;20462;-83
2022/02/23 07:38:09;;;;;;;10.70;2.37;;;6.90;99.90;;;;;;5032706;28;20461;-83
2022/02/23 07:40:36;;;;;;;15.10;4.10;;;6.90;99.90;;;;;;5032508;28;20261;-84
2022/02/23 07:43:04;;;;;;;15.87;2.80;;;6.90;99.90;;;;;;5035028;28;20169;-83
2022/02/23 07:45:32;;;;;;;21.17;3.50;;;6.80;99.90;;;;;;5036939;28;20410;-84
2022/02/23 07:47:58;;;;;;;8.53;1.73;;;6.80;99.90;;;;;;5019080;28;20865;-83
2022/02/23 07:50:25;;;;;;;14.47;2.67;;;6.90;99.90;;;;;;5036767;28;20483;-83
2022/02/23 07:52:50;;;;;;;15.87;3.17;;;7.00;99.90;;;;;;5018934;28;20441;-84
2022/02/23 07:55:22;;;;;;;11.40;1.90;;;7.10;99.90;;;;;;5018571;28;20940;-83
2022/02/23 07:57:47;;;;;;;17.10;2.90;;;7.20;99.90;;;;;;5036614;28;20177;-82
2022/02/23 08:00:14;;;;;;;20.47;3.10;;;7.30;99.90;;;;;;5036472;28;20416;-82
2022/02/23 08:02:42;;;;;;;13.47;2.90;;;8.80;99.90;;;;;;5036267;28;20173;-82
2022/02/23 08:05:08;;;;;;;17.63;3.47;;;8.40;99.90;;;;;;5019208;28;20426;-82
2022/02/23 08:07:34;;;;;;;9.80;1.70;;;7.80;99.90;;;;;;5018772;28;20425;-82
2022/02/23 08:09:59;;;;;;;13.03;2.60;;;7.70;99.90;;;;;;5018234;28;20187;-82
2022/02/23 08:12:26;;;;;;;9.83;2.13;;;8.10;99.90;;;;;;5036196;28;20461;-82
2022/02/23 08:14:54;;;;;;;23.20;2.40;;;7.80;99.90;;;;;;5029968;28;20511;-82
2022/02/23 08:20:06;;;;;;;11.53;3.03;;;7.70;99.90;;;;;;5019011;28;20422;-82
2022/02/23 08:22:32;;;;;;;5.57;1.63;;;7.60;99.90;;;;;;5016122;28;20465;-82
2022/02/23 08:24:58;;;;;;;11.30;1.77;;;7.50;99.90;;;;;;5015841;28;20427;-82
2022/02/23 08:27:25;;;;;;;14.40;1.47;;;7.50;99.90;;;;;;5019349;28;20168;-82
2022/02/23 08:29:52;;;;;;;12.90;2.27;;;7.30;99.90;;;;;;4999732;28;20950;-82
2022/02/23 08:32:25;;;;;;;14.33;3.37;;;7.30;99.90;;;;;;4998848;28;21052;-82
2022/02/23 08:34:52;;;;;;;11.77;2.37;;;7.30;99.90;;;;;;5026232;28;20516;-82
2022/02/23 08:37:19;;;;;;;14.03;5.23;;;7.40;99.90;;;;;;5035895;28;20430;-82
2022/02/23 08:39:46;;;;;;;15.43;2.77;;;7.50;99.90;;;;;;5024054;28;20465;-82
2022/02/23 08:42:14;;;;;;;14.27;4.43;;;7.60;99.90;;;;;;5015927;28;20420;-82
2022/02/23 08:44:39;;;;;;;13.47;2.40;;;8.20;99.90;;;;;;5016054;28;20444;-82
2022/02/23 08:47:07;;;;;;;15.53;2.80;;;8.40;99.90;;;;;;5015906;28;20429;-83
2022/02/23 08:49:32;;;;;;;14.70;2.60;;;7.90;99.90;;;;;;5033934;28;20185;-83
2022/02/23 08:51:58;;;;;;;9.83;2.00;;;7.90;99.90;;;;;;5035397;28;20554;-85
2022/02/23 08:54:23;;;;;;;9.33;1.67;;;8.10;99.90;;;;;;5017187;28;20542;-82
2022/02/23 08:56:49;;;;;;;13.93;3.33;;;7.80;99.90;;;;;;5035657;28;20177;-83
2022/02/23 08:59:15;;;;;;;13.73;3.00;;;8.10;99.90;;;;;;5035480;28;20177;-82
2022/02/23 09:01:42;;;;;;;8.93;1.90;;;8.50;99.90;;;;;;5035299;28;20210;-83
2022/02/23 09:04:08;;;;;;;10.67;3.40;;;8.20;99.90;;;;;;5035310;28;20470;-82
2022/02/23 09:06:35;;;;;;;10.47;2.67;;;8.30;99.90;;;;;;5017645;28;20918;-83
2022/02/23 09:09:05;;;;;;;18.17;2.40;;;8.40;99.90;;;;;;5034873;28;20181;-82
2022/02/23 09:11:31;;;;;;;15.27;2.97;;;8.20;99.90;;;;;;5035143;28;20488;-83
2022/02/23 09:13:57;;;;;;;11.57;1.87;;;8.10;99.90;;;;;;5035266;28;20503;-83
2022/02/23 09:16:22;;;;;;;17.67;2.63;;;7.90;99.90;;;;;;5035185;28;20178;-83
2022/02/23 09:18:50;;;;;;;11.23;1.90;;;8.00;99.90;;;;;;5010594;28;20515;-83
2022/02/23 09:21:16;;;;;;;8.50;1.70;;;8.30;99.90;;;;;;4997716;28;20185;-83
2022/02/23 09:23:43;;;;;;;12.87;1.73;;;8.10;99.90;;;;;;5014668;28;20463;-83
2022/02/23 09:26:11;;;;;;;16.07;2.40;;;8.10;99.90;;;;;;5018842;28;20473;-84
2022/02/23 09:28:37;;;;;;;16.87;2.90;;;8.10;99.90;;;;;;5033698;28;20438;-83
2022/02/23 09:31:07;;;;;;;13.80;2.63;;;8.30;99.90;;;;;;5014570;28;20471;-83
2022/02/23 09:33:34;;;;;;;16.30;3.23;;;10.20;99.90;;;;;;5025993;28;20425;-83
2022/02/23 09:36:02;;;;;;;10.17;1.60;;;9.40;99.90;;;;;;4997030;28;20484;-83
2022/02/23 09:38:31;;;;;;;15.23;2.97;;;10.50;99.90;;;;;;5032676;28;20817;-84
2022/02/23 09:40:59;;;;;;;17.23;3.90;;;10.80;99.90;;;;;;5034363;28;20411;-84
2022/02/23 09:43:25;;;;;;;9.07;3.30;;;11.80;99.90;;;;;;5016677;28;20420;-83
2022/02/23 09:45:53;;;;;;;11.83;2.10;;;11.20;99.90;;;;;;5034153;28;20420;-84
2022/02/23 09:48:24;;;;;;;9.73;1.63;;;9.80;1.00;;;;;;5034354;28;20762;-84
2022/02/23 09:50:50;;;;;;;11.20;2.70;;;9.20;99.90;;;;;;5016664;28;20462;-83
2022/02/23 09:53:17;;;;;;;15.67;2.50;;;9.00;99.90;;;;;;5033820;28;20513;-84
2022/02/23 09:55:43;;;;;;;14.57;2.70;;;10.00;99.90;;;;;;5016469;28;20770;-83
2022/02/23 09:58:08;;;;;;;13.90;3.60;;;10.10;99.90;;;;;;5034274;28;20415;-83
2022/02/23 10:00:34;;;;;;;12.63;3.40;;;9.40;99.90;;;;;;5033169;28;20528;-83
2022/02/23 10:02:59;;;;;;;20.87;5.53;;;9.80;99.90;;;;;;5014468;28;20195;-83
2022/02/23 10:05:26;;;;;;;6.97;1.87;;;11.80;99.90;;;;;;5014912;28;20536;-83
2022/02/23 10:08:02;;;;;;;8.70;1.63;;;11.80;1.00;;;;;;5034009;28;20174;-84
2022/02/23 10:10:33;;;;;;;13.23;2.27;;;12.70;1.00;;;;;;5032753;28;20449;-86
2022/02/23 10:13:03;;;;;;;12.70;2.47;;;14.40;1.00;;;;;;5029438;28;20775;-86
2022/02/23 10:15:42;;;;;;;8.17;2.00;;;15.40;1.00;;;;;;5014914;28;20448;-87
2022/02/23 10:18:17;;;;;;;11.23;2.67;;;15.80;1.00;;;;;;5021552;28;20522;-87
2022/02/23 10:20:42;;;;;;;12.93;3.23;;;16.10;1.00;;;;;;5028548;28;20435;-88
2022/02/23 10:23:20;;;;;;;9.60;2.17;;;15.70;99.90;;;;;;5032491;28;20977;-88
2022/02/23 10:26:02;;;;;;;9.57;2.67;;;15.80;99.90;;;;;;5015582;28;20185;-87
2022/02/23 10:28:29;;;;;;;8.40;2.67;;;14.60;99.90;;;;;;5015322;28;20409;-87
2022/02/23 10:30:59;;;;;;;7.50;1.60;;;16.10;99.90;;;;;;5033010;28;20527;-89
2022/02/23 10:33:32;;;;;;;9.10;1.80;;;16.00;99.90;;;;;;5033196;28;20413;-91
2022/02/23 10:36:05;;;;;;;12.00;2.43;;;16.70;99.90;;;;;;5032698;28;20450;-88
2022/02/23 10:39:01;;;;;;;10.13;2.70;;;14.30;99.90;;;;;;5015179;28;20789;-89
2022/02/23 10:41:32;;;;;;;6.93;2.10;;;14.90;99.90;;;;;;5030935;28;20427;-88
2022/02/23 10:43:59;;;;;;;9.33;2.60;;;16.10;99.90;;;;;;5014921;28;20421;-85
2022/02/23 10:46:24;;;;;;;8.23;1.73;;;17.10;99.90;;;;;;5032473;28;20468;-86
2022/02/23 10:48:55;;;;;;;8.13;1.60;;;16.10;99.90;;;;;;5032349;28;20435;-84
2022/02/23 10:51:45;;;;;;;7.00;2.90;;;15.70;99.90;;;;;;5031588;28;20226;-84
2022/02/23 10:54:13;;;;;;;5.53;1.90;;;16.60;99.90;;;;;;5032553;28;20984;-84
2022/02/23 10:56:40;;;;;;;8.07;1.53;;;17.20;99.90;;;;;;5033276;28;20421;-85
2022/02/23 10:59:11;;;;;;;5.90;1.83;;;17.20;99.90;;;;;;5033164;28;20430;-85
2022/02/23 11:01:38;;;;;;;8.03;1.90;;;17.20;99.90;;;;;;5032153;28;20523;-84
2022/02/23 11:04:05;;;;;;;4.80;1.83;;;17.40;99.90;;;;;;5032603;28;20485;-84
2022/02/23 11:06:33;;;;;;;8.93;2.17;;;16.10;99.90;;;;;;5033036;28;20434;-85
2022/02/23 11:09:00;;;;;;;6.70;1.30;;;16.90;99.90;;;;;;5032526;28;20904;-84
2022/02/23 11:11:27;;;;;;;4.97;1.30;;;17.10;99.90;;;;;;5033012;28;20474;-86
2022/02/23 11:13:55;;;;;;;4.30;1.30;;;17.00;99.90;;;;;;5032914;28;20415;-83
2022/02/23 11:16:22;;;;;;;7.37;1.60;;;17.00;99.90;;;;;;5032924;28;20470;-84
2022/02/23 11:18:58;;;;;;;4.90;1.33;;;17.40;99.90;;;;;;5032942;28;20509;-84
2022/02/23 11:21:29;;;;;;;6.67;1.90;;;15.50;99.90;;;;;;5032886;28;20469;-84
2022/02/23 11:23:57;;;;;;;4.83;1.30;;;15.60;99.90;;;;;;5032363;28;20466;-84
2022/02/23 11:26:24;;;;;;;6.40;1.30;;;16.90;99.90;;;;;;5032929;28;20416;-85
2022/02/23 11:29:03;;;;;;;11.23;1.73;;;17.30;99.90;;;;;;5032772;28;20467;-84
2022/02/23 11:31:36;;;;;;;5.30;1.80;;;17.00;99.90;;;;;;5032822;28;20781;-85
2022/02/23 11:34:06;;;;;;;5.27;1.50;;;15.90;99.90;;;;;;5032756;28;20406;-85
2022/02/23 11:36:47;;;;;;;5.57;1.50;;;15.00;99.90;;;;;;5032766;28;20410;-85
2022/02/23 11:39:14;;;;;;;8.70;1.57;;;15.10;99.90;;;;;;5032437;28;20413;-84
2022/02/23 11:41:44;;;;;;;4.97;0.93;;;16.60;99.90;;;;;;5032826;28;20421;-84
2022/02/23 11:44:15;;;;;;;6.23;1.50;;;16.30;99.90;;;;;;5014952;28;20418;-84
2022/02/23 11:46:55;;;;;;;6.50;0.70;;;17.50;99.90;;;;;;5032762;28;20419;-85
2022/02/23 11:49:27;;;;;;;4.90;1.30;;;15.90;99.90;;;;;;5014862;28;20421;-86
2022/02/23 11:52:16;;;;;;;6.03;0.90;;;17.70;99.90;;;;;;5032752;28;20477;-85
2022/02/23 11:54:54;;;;;;;4.97;1.07;;;19.10;99.90;;;;;;5032309;28;20423;-85
2022/02/23 11:57:38;;;;;;;5.47;1.47;;;17.80;99.90;;;;;;5032670;28;20900;-84
2022/02/23 12:00:08;;;;;;;7.87;1.00;;;19.10;99.90;;;;;;5032570;28;20971;-85
2022/02/23 12:02:35;;;;;;;9.70;1.53;;;19.60;99.90;;;;;;5032559;28;20408;-86
2022/02/23 12:05:01;;;;;;;5.67;1.10;;;18.10;99.90;;;;;;5032411;28;20794;-86
2022/02/23 12:07:48;;;;;;;9.10;1.77;;;15.10;99.90;;;;;;5032536;28;20552;-84
2022/02/23 12:10:15;;;;;;;5.47;1.47;;;14.10;99.90;;;;;;5014723;28;20409;-85
2022/02/23 12:12:43;;;;;;;6.30;1.67;;;16.60;99.90;;;;;;5032271;28;20479;-85
2022/02/23 12:15:19;;;;;;;3.63;0.93;;;14.30;99.90;;;;;;5032423;28;20495;-86
2022/02/23 12:17:54;;;;;;;5.20;1.30;;;15.00;99.90;;;;;;5032506;28;20416;-85
2022/02/23 12:20:42;;;;;;;8.33;1.30;;;13.70;99.90;;;;;;5032383;28;20785;-85
2022/02/23 12:23:14;;;;;;;9.23;2.03;;;13.10;99.90;;;;;;5014221;28;20458;-83
2022/02/23 12:25:46;;;;;;;3.90;1.17;;;16.40;99.90;;;;;;5049570;28;20407;-84
2022/02/23 12:28:13;;;;;;;3.83;1.03;;;16.50;99.90;;;;;;5050432;28;20388;-83
2022/02/23 12:30:40;;;;;;;6.20;1.70;;;15.50;99.90;;;;;;5054805;28;20518;-84
2022/02/23 12:33:16;;;;;;;5.40;1.00;;;16.40;99.90;;;;;;5058359;28;20432;-84
2022/02/23 12:35:44;;;;;;;3.87;1.00;;;17.10;99.90;;;;;;5054126;28;20437;-84
2022/02/23 12:38:10;;;;;;;2.73;0.90;;;14.90;99.90;;;;;;5036706;28;20508;-85
2022/02/23 12:40:37;;;;;;;9.57;1.83;;;13.10;99.90;;;;;;5018829;28;20509;-84
2022/02/23 12:43:08;;;;;;;4.63;0.50;;;13.10;99.90;;;;;;5036338;28;20420;-84
2022/02/23 12:45:48;;;;;;;6.80;1.70;;;14.60;99.90;;;;;;5035828;28;20515;-84
2022/02/23 12:48:13;;;;;;;5.37;1.33;;;16.00;99.90;;;;;;5035752;28;20415;-85
2022/02/23 12:50:39;;;;;;;4.83;0.90;;;17.70;99.90;;;;;;5035421;28;20475;-85
2022/02/23 12:53:04;;;;;;;4.17;0.70;;;18.80;99.90;;;;;;5035608;28;20189;-85